aviador You're here:

KBWW Decoded Metar

in
Report Time2017-11-23 14:55:00
UTC Time2017-11-23 15:00:43
Flight Rules vfr VFR
Wind240° at 12 kt
W.Decomp.*RWY 31: 4.1 kt HW 11.3 kt LCW
W.Rank240° ranks 19
Current wind is above 240° avg. (9.8)
Visibility9999 m
Phenomena:N/A
Clouds:N/A
Expected CloudBase > 1,600 ft AGL from Temp-Dew spread
CeilingNone
Temp07°C
Dew Point03°C (76% RH)
AAT1.2°C
QNH1007 hPa
Raw Report
METAR KBWW 231455Z AUTO 24012KT 10SM CLR 07/03 A2973 RMK AO2=

Extra information for KBWW:More info

Social comments